Other Surface Observations
Issued by NWS Great Falls, MT

Home | Current Version | Previous Version | Text Only | Print | Product List | Glossary On
Versions: 1 2 3 4 5 6 7 8 9 10 11 12 13 14 15 16 17 18 19 20 21 22 23 24 25 26 27 28 29 30 31 32 33 34 35 36 37 38 39 40 41 42 43 44 45 46 47 48 49 50
000
SXUS55 KTFX 231909
OSOTFX

AREA AWOS OBSERVATIONS
NATIONAL WEATHER SERVICE GREAT FALLS MT
0109 PM MDT Sun Apr 23 2017

METAR K6S8 231855Z AUTO 22004KT 40SM 17/02 A2972 RMK A01 T01720016
METAR K7S0 231755Z AUTO 11000KT 40SM 10/04 A2988 RMK A01 T01000044
METAR K7S1 231855Z AUTO 16023KT 40SM 13/M02 A2976 RMK A01 T01331016
METAR K7S1 231755Z AUTO 14007KT 40SM 14/M01 A2977 RMK A01 T01441011
METAR K97M 231855Z AUTO 11009KT 40SM 09/03 A2978 RMK A01 T00880033
METAR K97M 231755Z AUTO 12009KT 40SM 07/02 A2980 RMK A01 T00720022
METAR K9S2 231855Z AUTO 08015KT 25SM M01/M06 A2990 RMK A01 T10111055
METAR K9S2 231755Z AUTO 08011KT 2SM M01/M05 A2992 RMK A01 T10111050
METAR K9S5 231855Z AUTO 27000KT 40SM 16/16 A2973 RMK A01 T01610161
METAR KRPX 231855Z AUTO 18006KT 40SM 17/01 A2964 RMK A01 T01720005
METAR KS34 231855Z AUTO 09001KT 40SM 13/03 A2982 RMK A01 T01330033
METAR KS34 231755Z AUTO 11000KT 40SM 14/04 A2984 RMK A01 T01380038
METAR KTHM 231755Z AUTO 20001KT 2 1/2SM 12/04 A2987 RMK A01 T01160044



USA.gov is the U.S. government's official web portal to all federal, state and local government web resources and services.